Menifee, AR (72107)

6:39 AM CDT on October 01, 2014 (GMT -0500)
Northwood | Change Station
CLOSE
Current Station
Personal Weather Station
Location: Conway, AR
Elevation: 341 ft
Nearby Weather Stations

Elev 341 ft 35.10 °N, 92.48 °W | Updated 9 minutes ago

Partly Cloudy
Partly Cloudy
65.7 °F
Feels Like 65.7 °F
N
0.0
Wind Variable Wind from NNE

Today
High -- | Low -- °F
--% Chance of Precip.
Yesterday
High -- | Low -- °F
Precip. -- in
7:05 AM 6:54 PM
Waxing Crescent, 46% visible
Pressure 29.87 in
Visibility 10.0 miles
Clouds Mostly Cloudy 6000 ft
Mostly Cloudy 12000 ft
Dew Point 65 °F
Humidity 98%
Rainfall 0.00 in
Snow Depth Not available.
UV 0 out of 12
Pollen 8.60 out of 12
Air Quality Not available.
Flu Activity Not available.
METAR KLRF 011058Z AUTO 00000KT 10SM BKN060 BKN120 17/16 A2987 RMK AO2 SLP115 T01730157

More Conditions Fewer Conditions

Pressure 29.87 in
Visibility 10.0 miles
Clouds Mostly Cloudy 6000 ft
Mostly Cloudy 12000 ft
Dew Point 65 °F
Humidity 98%
Rainfall 0.00 in
Snow Depth Not available.
UV 0 out of 12
Pollen 8.60 out of 12
Air Quality Not available.
Flu Activity Not available.
METAR KLRF 011058Z AUTO 00000KT 10SM BKN060 BKN120 17/16 A2987 RMK AO2 SLP115 T01730157

More Conditions Fewer Conditions

10-Day Weather Forecast

Almanac

Astronomy

Oct. 01, 2014 Rise Set
Actual Time 7:05 AM CDT 6:54 PM CDT
Civil Twilight 6:39 AM CDT 7:19 PM CDT
Nautical Twilight 6:10 AM CDT 7:48 PM CDT
Astronomical Twilight 5:40 AM CDT 8:18 PM CDT
Moon 1:56 PM CDT No Moon Set
Length of Visible Light 12h 39m
Length of Day
11h 49m
Tomorrow will be 2m 12s shorter.
Waxing Crescent, 46% of the Moon is Illuminated
Today
Waxing Crescent
Oct 1
First Quarter
Oct 8
Full
Oct 15
Last Quarter
Oct 23
New

Today's Extremes

State Highs State Lows

Community

WunderPhotos

Upload Photos

1,757,913 photos uploaded!

Nearby

Snow Depth

Station Depth Elevation
No new snow has been reported.

Earthquake Activity

City Distance Mag. Time & Date
No recent earthquake activity has been reported nearby.
Minimum magnitude displayed is 2.5.

Coastal Water Temperatures

Place Temperature
No Stations Reporting

Nearby Weather Stations